Time;durP1;ratioP1;P1;durP2;ratioP2;P2;SDS_P1;SDS_P2;PMS_P1;PMS_P2;Temp;Humidity;BMP_temperature;BMP_pressure;BME280_temperature;BME280_humidity;BME280_pressure;Samples;Min_cycle;Max_cycle;Signal;HPM_P1;HPM_P2
2022/06/05 00:01:27;;;;;;;0.00;0.00;;;;;;;;;;5030523;28;20058;-56
2022/06/05 00:03:59;;;;;;;0.00;0.00;;;;;;;;;;5021604;28;20058;-56
2022/06/05 00:06:34;;;;;;;0.38;0.22;;;;;;;;;;5011947;28;20054;-56
2022/06/05 00:09:20;;;;;;;0.20;0.10;;;;;;;;;;5010775;28;20117;-57
2022/06/05 00:11:49;;;;;;;0.00;0.00;;;;;;;;;;5011166;28;20054;-55
2022/06/05 00:14:16;;;;;;;1.25;0.25;;;;;;;;;;5009075;28;20054;-56
2022/06/05 00:16:42;;;;;;;0.20;0.20;;;;;;;;;;5010195;28;20093;-56
2022/06/05 00:19:09;;;;;;;0.20;0.20;;;;;;;;;;5010976;28;20082;-56
2022/06/05 00:21:35;;;;;;;0.00;0.00;;;;;;;;;;5015073;28;20493;-55
2022/06/05 00:24:02;;;;;;;0.03;0.03;;;;;;;;;;5009970;28;20050;-54
2022/06/05 00:26:31;;;;;;;0.05;0.05;;;;;;;;;;5016153;28;20081;-55
2022/06/05 00:29:05;;;;;;;0.32;0.32;;;;;;;;;;5027712;28;20054;-56
2022/06/05 00:31:52;;;;;;;0.10;0.00;;;;;;;;;;5030121;28;20112;-56
2022/06/05 00:34:19;;;;;;;0.20;0.10;;;;;;;;;;5029469;28;20092;-55
2022/06/05 00:37:04;;;;;;;0.13;0.10;;;;;;;;;;5021360;28;20089;-57
2022/06/05 00:39:34;;;;;;;0.08;0.00;;;;;;;;;;5025254;28;20089;-56
2022/06/05 00:42:09;;;;;;;0.00;0.00;;;;;;;;;;5010365;28;20086;-56
2022/06/05 00:44:40;;;;;;;0.35;0.32;;;;;;;;;;5012172;28;20050;-57
2022/06/05 00:47:08;;;;;;;0.77;0.08;;;;;;;;;;5026890;28;20054;-56
2022/06/05 00:49:37;;;;;;;0.00;0.00;;;;;;;;;;5027917;28;20057;-57
2022/06/05 00:52:05;;;;;;;0.75;0.38;;;;;;;;;;5029518;28;20053;-55
2022/06/05 00:54:31;;;;;;;0.43;0.32;;;;;;;;;;5015774;28;20082;-55
2022/06/05 00:56:57;;;;;;;6.03;1.25;;;;;;;;;;5024427;28;20058;-57
2022/06/05 00:59:24;;;;;;;0.00;0.00;;;;;;;;;;5030069;28;20054;-55
2022/06/05 01:01:51;;;;;;;0.00;0.00;;;;;;;;;;5019015;28;20058;-57
2022/06/05 01:04:18;;;;;;;0.22;0.13;;;;;;;;;;5011115;28;20078;-56
2022/06/05 01:06:45;;;;;;;0.00;0.00;;;;;;;;;;5027635;28;20049;-57
2022/06/05 01:09:11;;;;;;;0.00;0.00;;;;;;;;;;5029191;28;20536;-56
2022/06/05 01:11:41;;;;;;;0.00;0.00;;;;;;;;;;5030544;28;20054;-57
2022/06/05 01:14:20;;;;;;;0.00;0.00;;;;;;;;;;5027833;28;20807;-55
2022/06/05 01:16:53;;;;;;;0.05;0.05;;;;;;;;;;5028655;28;20058;-55
2022/06/05 01:19:32;;;;;;;0.00;0.00;;;;;;;;;;5029600;28;20137;-57
2022/06/05 01:21:58;;;;;;;;;;;;;;;;;;5030437;28;20505;-55
2022/06/05 01:24:27;;;;;;;0.00;0.00;;;;;;;;;;5012195;28;44985;-55
2022/06/05 01:27:01;;;;;;;0.32;0.32;;;;;;;;;;5009566;28;20513;-56
2022/06/05 01:29:32;;;;;;;0.20;0.20;;;;;;;;;;5009699;28;20062;-56
2022/06/05 01:32:02;;;;;;;0.00;0.00;;;;;;;;;;5010381;28;20559;-55
2022/06/05 01:34:31;;;;;;;0.00;0.00;;;;;;;;;;5009483;28;20521;-55
2022/06/05 01:37:10;;;;;;;0.00;0.00;;;;;;;;;;5009250;28;20085;-56
2022/06/05 01:39:51;;;;;;;0.00;0.00;;;;;;;;;;5009437;28;20050;-56
2022/06/05 01:42:21;;;;;;;0.00;0.00;;;;;;;;;;5009626;28;20050;-57
2022/06/05 01:44:49;;;;;;;0.38;0.38;;;;;;;;;;5025611;28;20078;-57
2022/06/05 01:47:20;;;;;;;2.50;0.55;;;;;;;;;;5009231;28;20105;-57
2022/06/05 01:50:03;;;;;;;0.00;0.00;;;;;;;;;;5009292;28;20062;-57
2022/06/05 01:52:36;;;;;;;0.00;0.00;;;;;;;;;;5008817;28;20050;-56
2022/06/05 01:55:09;;;;;;;0.20;0.20;;;;;;;;;;5009075;28;20058;-56
2022/06/05 01:57:36;;;;;;;0.25;0.20;;;;;;;;;;5008391;28;20062;-56
2022/06/05 02:00:08;;;;;;;0.35;0.20;;;;;;;;;;5007768;28;20050;-55
2022/06/05 02:02:39;;;;;;;0.00;0.00;;;;;;;;;;5009380;28;20058;-57
2022/06/05 02:05:08;;;;;;;0.30;0.30;;;;;;;;;;5009005;28;20516;-56
2022/06/05 02:07:37;;;;;;;0.05;0.03;;;;;;;;;;5009110;28;20058;-54
2022/06/05 02:10:09;;;;;;;0.00;0.00;;;;;;;;;;5014771;28;20058;-55
2022/06/05 02:12:36;;;;;;;0.00;0.00;;;;;;;;;;5026763;28;20054;-56
2022/06/05 02:15:03;;;;;;;0.00;0.00;;;;;;;;;;5026351;28;20501;-55
2022/06/05 02:17:30;;;;;;;2.78;0.80;;;;;;;;;;5029474;28;20135;-56
2022/06/05 02:19:58;;;;;;;0.32;0.32;;;;;;;;;;5016188;28;20061;-55
2022/06/05 02:22:29;;;;;;;0.17;0.10;;;;;;;;;;5010575;28;20077;-56
2022/06/05 02:24:55;;;;;;;0.40;0.40;;;;;;;;;;5020591;28;20057;-56
2022/06/05 02:27:23;;;;;;;0.00;0.00;;;;;;;;;;5008232;28;20054;-56
2022/06/05 02:29:50;;;;;;;0.47;0.40;;;;;;;;;;5010498;28;20108;-55
2022/06/05 02:32:40;;;;;;;0.00;0.00;;;;;;;;;;5011815;28;20394;-57
2022/06/05 02:35:13;;;;;;;0.20;0.20;;;;;;;;;;5019274;28;20054;-55
2022/06/05 02:38:00;;;;;;;0.22;0.22;;;;;;;;;;5025928;28;20104;-56
2022/06/05 02:40:39;;;;;;;0.00;0.00;;;;;;;;;;5024867;28;20927;-55
2022/06/05 02:43:15;;;;;;;0.03;0.03;;;;;;;;;;5008687;28;20105;-56
2022/06/05 02:46:00;;;;;;;0.10;0.10;;;;;;;;;;5014657;28;20062;-54
2022/06/05 02:48:30;;;;;;;0.00;0.00;;;;;;;;;;5013491;28;20054;-55
2022/06/05 02:51:01;;;;;;;0.00;0.00;;;;;;;;;;5017026;28;20538;-56
2022/06/05 02:53:28;;;;;;;0.00;0.00;;;;;;;;;;5028902;28;20081;-56
2022/06/05 02:55:54;;;;;;;0.57;0.57;;;;;;;;;;5027992;28;20148;-55
2022/06/05 02:58:21;;;;;;;1.88;1.75;;;;;;;;;;5014878;28;20054;-56
2022/06/05 03:03:32;;;;;;;0.00;0.00;;;;;;;;;;5028033;28;20161;-55
2022/06/05 03:05:59;;;;;;;0.00;0.00;;;;;;;;;;5019756;28;20121;-56
2022/06/05 03:08:26;;;;;;;0.00;0.00;;;;;;;;;;5019446;28;20109;-56
2022/06/05 03:10:52;;;;;;;0.40;0.38;;;;;;;;;;5015955;28;22162;-55
2022/06/05 03:13:19;;;;;;;1.27;0.50;;;;;;;;;;5028739;28;20058;-55
2022/06/05 03:15:46;;;;;;;0.00;0.00;;;;;;;;;;5021748;28;20054;-56
2022/06/05 03:18:15;;;;;;;0.32;0.32;;;;;;;;;;5007706;28;20486;-56
2022/06/05 03:20:42;;;;;;;0.10;0.10;;;;;;;;;;5017023;28;20483;-55
2022/06/05 03:23:09;;;;;;;0.00;0.00;;;;;;;;;;5022719;28;20054;-56
2022/06/05 03:25:38;;;;;;;0.15;0.08;;;;;;;;;;5021158;28;20062;-56
2022/06/05 03:28:04;;;;;;;;;;;;;;;;;;5016610;28;20104;-56
2022/06/05 03:30:31;;;;;;;0.00;0.00;;;;;;;;;;5016335;28;44628;-55
2022/06/05 03:32:57;;;;;;;0.03;0.03;;;;;;;;;;5008047;28;20059;-56
2022/06/05 03:35:23;;;;;;;0.00;0.00;;;;;;;;;;5009934;28;20135;-54
2022/06/05 03:37:50;;;;;;;0.00;0.00;;;;;;;;;;5007368;28;20059;-55
2022/06/05 03:40:16;;;;;;;0.00;0.00;;;;;;;;;;5015760;28;20472;-56
2022/06/05 03:42:43;;;;;;;0.28;0.10;;;;;;;;;;5019889;28;20130;-56
2022/06/05 03:45:14;;;;;;;0.00;0.00;;;;;;;;;;5007609;28;20129;-54
2022/06/05 03:47:40;;;;;;;2.13;0.17;;;;;;;;;;5008398;28;20579;-56
2022/06/05 03:50:07;;;;;;;0.00;0.00;;;;;;;;;;5016009;28;20062;-54
2022/06/05 03:52:34;;;;;;;0.00;0.00;;;;;;;;;;5024763;28;20061;-55
2022/06/05 03:55:00;;;;;;;0.30;0.20;;;;;;;;;;5007362;28;20050;-56
2022/06/05 03:57:27;;;;;;;0.00;0.00;;;;;;;;;;5007836;28;20567;-56
2022/06/05 03:59:53;;;;;;;0.00;0.00;;;;;;;;;;5008254;28;20132;-57
2022/06/05 04:02:20;;;;;;;1.15;0.28;;;;;;;;;;5010634;28;20524;-56
2022/06/05 04:04:46;;;;;;;0.00;0.00;;;;;;;;;;5029526;28;20507;-57
2022/06/05 04:07:13;;;;;;;0.00;0.00;;;;;;;;;;5027622;28;20201;-57
2022/06/05 04:09:39;;;;;;;0.20;0.10;;;;;;;;;;5028474;28;20073;-56
2022/06/05 04:12:05;;;;;;;0.00;0.00;;;;;;;;;;5030646;28;20058;-57
2022/06/05 04:14:32;;;;;;;0.10;0.10;;;;;;;;;;5029945;28;20057;-53
2022/06/05 04:16:58;;;;;;;0.50;0.22;;;;;;;;;;5028890;28;20497;-57
2022/06/05 04:19:24;;;;;;;0.00;0.00;;;;;;;;;;5024920;28;20427;-57
2022/06/05 04:21:51;;;;;;;0.00;0.00;;;;;;;;;;5010758;28;20059;-56
2022/06/05 04:24:17;;;;;;;0.00;0.00;;;;;;;;;;5023330;28;20062;-56
2022/06/05 04:26:44;;;;;;;0.13;0.13;;;;;;;;;;5010957;28;20107;-57
2022/06/05 04:29:11;;;;;;;0.00;0.00;;;;;;;;;;5009642;28;20055;-56
2022/06/05 04:31:41;;;;;;;0.00;0.00;;;;;;;;;;5010029;28;20568;-57
2022/06/05 04:34:08;;;;;;;0.10;0.10;;;;;;;;;;5010056;28;20128;-56
2022/06/05 04:36:35;;;;;;;0.00;0.00;;;;;;;;;;5027467;28;20054;-57
2022/06/05 04:39:02;;;;;;;0.98;0.28;;;;;;;;;;5027890;28;20532;-57
2022/06/05 04:41:28;;;;;;;0.00;0.00;;;;;;;;;;5010730;28;20117;-57
2022/06/05 04:43:55;;;;;;;0.00;0.00;;;;;;;;;;5020855;28;20058;-57
2022/06/05 04:46:23;;;;;;;0.05;0.05;;;;;;;;;;5014262;28;20295;-57
2022/06/05 04:48:49;;;;;;;0.00;0.00;;;;;;;;;;5011453;28;20145;-57
2022/06/05 04:51:18;;;;;;;0.20;0.20;;;;;;;;;;5011287;28;20109;-56
2022/06/05 04:53:45;;;;;;;0.22;0.10;;;;;;;;;;5017685;28;20106;-57
2022/06/05 04:56:13;;;;;;;8.38;0.43;;;;;;;;;;5024232;28;20109;-57
2022/06/05 04:58:39;;;;;;;0.00;0.00;;;;;;;;;;5029055;28;20093;-56
2022/06/05 05:01:13;;;;;;;0.00;0.00;;;;;;;;;;5025245;28;20054;-58
2022/06/05 05:03:40;;;;;;;0.00;0.00;;;;;;;;;;5029934;28;20050;-57
2022/06/05 05:06:07;;;;;;;0.08;0.08;;;;;;;;;;5027871;28;20058;-56
2022/06/05 05:08:34;;;;;;;0.00;0.00;;;;;;;;;;5010971;28;20105;-58
2022/06/05 05:11:00;;;;;;;0.08;0.08;;;;;;;;;;5009173;28;20054;-57
2022/06/05 05:13:27;;;;;;;0.35;0.15;;;;;;;;;;5015894;28;20096;-57
2022/06/05 05:15:55;;;;;;;0.00;0.00;;;;;;;;;;5027547;28;20050;-57
2022/06/05 05:18:22;;;;;;;0.15;0.15;;;;;;;;;;5011146;28;20062;-57
2022/06/05 05:20:48;;;;;;;1.13;0.20;;;;;;;;;;5009637;28;20509;-56
2022/06/05 05:23:14;;;;;;;0.03;0.03;;;;;;;;;;5009813;28;20116;-56
2022/06/05 05:25:41;;;;;;;0.00;0.00;;;;;;;;;;5017099;28;20594;-57
2022/06/05 05:28:08;;;;;;;0.00;0.00;;;;;;;;;;5028938;28;20058;-57
2022/06/05 05:30:35;;;;;;;0.20;0.10;;;;;;;;;;5029284;28;20058;-57
2022/06/05 05:33:02;;;;;;;0.03;0.03;;;;;;;;;;5026700;28;20050;-56
2022/06/05 05:35:28;;;;;;;0.00;0.00;;;;;;;;;;5021774;28;20090;-57
2022/06/05 05:37:54;;;;;;;0.00;0.00;;;;;;;;;;5019031;28;20085;-58
2022/06/05 05:43:05;;;;;;;0.20;0.17;;;;;;;;;;5008274;28;20086;-57
2022/06/05 05:45:32;;;;;;;0.00;0.00;;;;;;;;;;5008824;28;20059;-57
2022/06/05 05:47:58;;;;;;;0.17;0.15;;;;;;;;;;5019347;28;20112;-56
2022/06/05 05:50:25;;;;;;;0.10;0.10;;;;;;;;;;5028470;28;20065;-55
2022/06/05 05:52:51;;;;;;;0.28;0.10;;;;;;;;;;5029088;28;20054;-55
2022/06/05 05:55:19;;;;;;;0.30;0.30;;;;;;;;;;5015441;28;20089;-57
2022/06/05 05:57:46;;;;;;;0.00;0.00;;;;;;;;;;5020127;28;20116;-58
2022/06/05 06:00:13;;;;;;;0.95;0.57;;;;;;;;;;5009084;28;20082;-57
2022/06/05 06:02:41;;;;;;;0.00;0.00;;;;;;;;;;5008674;28;20054;-54
2022/06/05 06:05:08;;;;;;;0.22;0.22;;;;;;;;;;5019832;28;20167;-57
2022/06/05 06:07:35;;;;;;;0.10;0.10;;;;;;;;;;5021486;28;20054;-57
2022/06/05 06:10:02;;;;;;;0.15;0.15;;;;;;;;;;5008905;28;20082;-57
2022/06/05 06:12:28;;;;;;;0.10;0.10;;;;;;;;;;5009043;28;20481;-57
2022/06/05 06:14:55;;;;;;;0.10;0.10;;;;;;;;;;5022288;28;20085;-56
2022/06/05 06:17:21;;;;;;;3.30;1.25;;;;;;;;;;5020521;28;20058;-57
2022/06/05 06:19:48;;;;;;;0.00;0.00;;;;;;;;;;5008883;28;20097;-57
2022/06/05 06:22:14;;;;;;;0.10;0.10;;;;;;;;;;5008865;28;20104;-56
2022/06/05 06:24:40;;;;;;;0.10;0.10;;;;;;;;;;5020925;28;20093;-57
2022/06/05 06:27:07;;;;;;;0.00;0.00;;;;;;;;;;5009225;28;20210;-57
2022/06/05 06:29:35;;;;;;;0.08;0.00;;;;;;;;;;5008853;28;20607;-54
2022/06/05 06:32:01;;;;;;;0.03;0.03;;;;;;;;;;5007895;28;20051;-56
2022/06/05 06:34:28;;;;;;;0.10;0.10;;;;;;;;;;5020106;28;20049;-57
2022/06/05 06:36:54;;;;;;;0.32;0.10;;;;;;;;;;5027440;28;20512;-57
2022/06/05 06:39:21;;;;;;;0.00;0.00;;;;;;;;;;5025105;28;20058;-56
2022/06/05 06:41:48;;;;;;;0.10;0.10;;;;;;;;;;5025737;28;20114;-57
2022/06/05 06:44:14;;;;;;;0.00;0.00;;;;;;;;;;5027814;28;20590;-57
2022/06/05 06:46:41;;;;;;;0.20;0.10;;;;;;;;;;5028121;28;20112;-56
2022/06/05 06:49:08;;;;;;;0.00;0.00;;;;;;;;;;5008529;28;20066;-57
2022/06/05 06:51:35;;;;;;;0.10;0.10;;;;;;;;;;5026720;28;20116;-58
2022/06/05 06:54:01;;;;;;;0.03;0.03;;;;;;;;;;5017974;28;20214;-56
2022/06/05 06:56:29;;;;;;;0.00;0.00;;;;;;;;;;5007362;28;20062;-55
2022/06/05 06:58:57;;;;;;;0.32;0.20;;;;;;;;;;5017323;28;20058;-56
2022/06/05 07:01:23;;;;;;;0.00;0.00;;;;;;;;;;5011123;28;20058;-57
2022/06/05 07:03:50;;;;;;;0.10;0.00;;;;;;;;;;5007422;28;20058;-57
2022/06/05 07:06:16;;;;;;;0.20;0.10;;;;;;;;;;5007105;28;20402;-55
2022/06/05 07:08:43;;;;;;;0.05;0.00;;;;;;;;;;5022668;28;20985;-56
2022/06/05 07:11:10;;;;;;;0.43;0.43;;;;;;;;;;5026627;28;20140;-57
2022/06/05 07:13:45;;;;;;;0.22;0.20;;;;;;;;;;5022341;28;20572;-57
2022/06/05 07:16:11;;;;;;;0.03;0.03;;;;;;;;;;5008487;28;20584;-57
2022/06/05 07:18:38;;;;;;;0.00;0.00;;;;;;;;;;5009078;28;20046;-57
2022/06/05 07:21:09;;;;;;;0.00;0.00;;;;;;;;;;5009009;28;20046;-58
2022/06/05 07:23:35;;;;;;;0.20;0.20;;;;;;;;;;5022336;28;20262;-56
2022/06/05 07:26:02;;;;;;;0.00;0.00;;;;;;;;;;5024253;28;20050;-59
2022/06/05 07:28:28;;;;;;;0.43;0.32;;;;;;;;;;5027581;28;20112;-57
2022/06/05 07:30:55;;;;;;;0.30;0.22;;;;;;;;;;5011256;28;20900;-57
2022/06/05 07:33:23;;;;;;;0.00;0.00;;;;;;;;;;5025280;28;20921;-57
2022/06/05 07:35:54;;;;;;;0.00;0.00;;;;;;;;;;5021776;28;20109;-56
2022/06/05 07:38:21;;;;;;;0.03;0.03;;;;;;;;;;5011272;28;20090;-57
2022/06/05 07:40:47;;;;;;;0.20;0.20;;;;;;;;;;5015781;28;20606;-57
2022/06/05 07:43:13;;;;;;;0.20;0.13;;;;;;;;;;5019130;28;20058;-56
2022/06/05 07:45:43;;;;;;;0.00;0.00;;;;;;;;;;5022741;28;20057;-57
2022/06/05 07:48:09;;;;;;;0.00;0.00;;;;;;;;;;5011220;28;20137;-57
2022/06/05 07:54:26;;;;;;;0.32;0.20;;;;;;;;;;5021062;28;20096;-57
2022/06/05 07:56:08;;;;;;;0.38;0.20;;;;;;;;;;5021791;28;20500;-56
2022/06/05 07:58:34;;;;;;;0.20;0.00;;;;;;;;;;5014087;28;20050;-56
2022/06/05 08:01:00;;;;;;;1.35;0.57;;;;;;;;;;5024160;28;20054;-56
2022/06/05 08:03:27;;;;;;;0.47;0.30;;;;;;;;;;5010671;28;20084;-58
2022/06/05 08:05:53;;;;;;;0.38;0.25;;;;;;;;;;5010851;28;20062;-56
2022/06/05 08:08:20;;;;;;;0.43;0.25;;;;;;;;;;5010656;28;20093;-57
2022/06/05 08:10:46;;;;;;;0.30;0.30;;;;;;;;;;5016626;28;20592;-58
2022/06/05 08:13:12;;;;;;;0.03;0.03;;;;;;;;;;5029207;28;20057;-57
2022/06/05 08:15:42;;;;;;;0.00;0.00;;;;;;;;;;5026572;28;20054;-58
2022/06/05 08:18:09;;;;;;;0.28;0.22;;;;;;;;;;5021436;28;20062;-57
2022/06/05 08:20:35;;;;;;;0.00;0.00;;;;;;;;;;5018679;28;20058;-58
2022/06/05 08:23:02;;;;;;;0.35;0.35;;;;;;;;;;5024926;28;20062;-55
2022/06/05 08:25:28;;;;;;;0.20;0.20;;;;;;;;;;5030045;28;20567;-57
2022/06/05 08:27:55;;;;;;;0.00;0.00;;;;;;;;;;5024808;28;20050;-58
2022/06/05 08:30:21;;;;;;;0.55;0.25;;;;;;;;;;5029992;28;20520;-58
2022/06/05 08:32:48;;;;;;;0.40;0.28;;;;;;;;;;5024336;28;20053;-57
2022/06/05 08:35:14;;;;;;;0.10;0.10;;;;;;;;;;5029145;28;20116;-57
2022/06/05 08:43:15;;;;;;;0.22;0.22;;;;;;;;;;5027108;28;20501;-58
2022/06/05 08:45:47;;;;;;;0.35;0.20;;;;;;;;;;5009841;28;20077;-57
2022/06/05 08:48:16;;;;;;;0.03;0.03;;;;;;;;;;5010376;28;20089;-57
2022/06/05 08:50:49;;;;;;;0.03;0.03;;;;;;;;;;5027309;28;20072;-57
2022/06/05 08:53:15;;;;;;;;;;;;;;;;;;5029484;28;20140;-57
2022/06/05 08:55:43;;;;;;;0.20;0.13;;;;;;;;;;5027845;28;44649;-55
2022/06/05 08:58:09;;;;;;;0.10;0.08;;;;;;;;;;5027978;28;20600;-57
2022/06/05 09:00:37;;;;;;;0.13;0.08;;;;;;;;;;5024744;28;20093;-57
2022/06/05 09:03:13;;;;;;;0.20;0.20;;;;;;;;;;5029542;28;20061;-60
2022/06/05 09:05:42;;;;;;;0.13;0.13;;;;;;;;;;5021548;28;20061;-60
2022/06/05 09:08:13;;;;;;;0.00;0.00;;;;;;;;;;5018997;28;20053;-60
2022/06/05 09:10:43;;;;;;;0.00;0.00;;;;;;;;;;5011101;28;20136;-61
2022/06/05 09:13:13;;;;;;;0.57;0.45;;;;;;;;;;5009815;28;20493;-61
2022/06/05 09:15:43;;;;;;;0.35;0.35;;;;;;;;;;5014974;28;20531;-61
2022/06/05 09:18:18;;;;;;;0.25;0.10;;;;;;;;;;5017229;28;20057;-60
2022/06/05 09:20:49;;;;;;;0.80;0.30;;;;;;;;;;5022019;28;20128;-60
2022/06/05 09:23:25;;;;;;;0.20;0.20;;;;;;;;;;5025189;28;20512;-60
2022/06/05 09:25:53;;;;;;;0.00;0.00;;;;;;;;;;5027756;28;20062;-60
2022/06/05 09:28:20;;;;;;;;;;;;;;;;;;5016693;28;20049;-60
2022/06/05 09:30:58;;;;;;;0.60;0.38;;;;;;;;;;5027420;28;43402;-60
2022/06/05 09:33:25;;;;;;;0.57;0.57;;;;;;;;;;5028475;28;20128;-60
2022/06/05 09:35:53;;;;;;;0.00;0.00;;;;;;;;;;5028147;28;20054;-60
2022/06/05 09:38:27;;;;;;;0.68;0.63;;;;;;;;;;5028663;28;20114;-60
2022/06/05 09:41:05;;;;;;;0.05;0.05;;;;;;;;;;5028864;28;20112;-60
2022/06/05 09:43:50;;;;;;;0.20;0.13;;;;;;;;;;5026554;28;20050;-61
2022/06/05 09:46:34;;;;;;;0.10;0.10;;;;;;;;;;5007635;28;20062;-61
2022/06/05 09:49:21;;;;;;;0.00;0.00;;;;;;;;;;5008160;28;20061;-60
2022/06/05 09:51:47;;;;;;;0.65;0.30;;;;;;;;;;5008442;28;20086;-61
2022/06/05 09:54:22;;;;;;;0.20;0.20;;;;;;;;;;5008873;28;20101;-60
2022/06/05 10:00:00;;;;;;;0.00;0.00;;;;;;;;;;5027498;28;20108;-61
2022/06/05 10:02:31;;;;;;;0.00;0.00;;;;;;;;;;5022529;28;20050;-60
2022/06/05 10:04:57;;;;;;;0.20;0.20;;;;;;;;;;5008260;28;20061;-61
2022/06/05 10:07:37;;;;;;;0.00;0.00;;;;;;;;;;5009395;28;20085;-61
2022/06/05 10:10:14;;;;;;;0.00;0.00;;;;;;;;;;5008710;28;20086;-60
2022/06/05 10:12:54;;;;;;;0.20;0.20;;;;;;;;;;5011206;28;20117;-61
2022/06/05 10:15:39;;;;;;;0.30;0.20;;;;;;;;;;5008111;28;20128;-60
2022/06/05 10:18:29;;;;;;;0.10;0.10;;;;;;;;;;5007994;28;20086;-61
2022/06/05 10:21:02;;;;;;;0.00;0.00;;;;;;;;;;5010221;28;20058;-60
2022/06/05 10:23:35;;;;;;;0.32;0.17;;;;;;;;;;5018526;28;20112;-60
2022/06/05 10:26:12;;;;;;;0.30;0.20;;;;;;;;;;5027352;28;20049;-60
2022/06/05 10:28:40;;;;;;;0.33;0.33;;;;;;;;;;5028331;28;20053;-60
2022/06/05 10:31:27;;;;;;;0.20;0.20;;;;;;;;;;5013487;28;20124;-60
2022/06/05 10:34:05;;;;;;;0.00;0.00;;;;;;;;;;5008290;28;20133;-60
2022/06/05 10:37:07;;;;;;;0.20;0.20;;;;;;;;;;5008641;28;20427;-61
2022/06/05 10:39:33;;;;;;;1.20;0.73;;;;;;;;;;5010386;28;20559;-60
2022/06/05 10:42:06;;;;;;;0.10;0.10;;;;;;;;;;5020923;28;20560;-60
2022/06/05 10:44:52;;;;;;;0.03;0.03;;;;;;;;;;5027432;28;20104;-61
2022/06/05 10:47:37;;;;;;;0.38;0.17;;;;;;;;;;5027067;28;20559;-61
2022/06/05 10:50:10;;;;;;;0.00;0.00;;;;;;;;;;5028006;28;20101;-60
2022/06/05 10:52:45;;;;;;;0.32;0.10;;;;;;;;;;5012613;28;20057;-61
2022/06/05 10:55:14;;;;;;;0.45;0.45;;;;;;;;;;5028352;28;20112;-60
2022/06/05 10:57:45;;;;;;;0.20;0.20;;;;;;;;;;5022171;28;20509;-61
2022/06/05 11:00:18;;;;;;;0.98;0.43;;;;;;;;;;5007706;28;20630;-60
2022/06/05 11:02:56;;;;;;;0.10;0.10;;;;;;;;;;5006055;28;20065;-60
2022/06/05 11:05:42;;;;;;;0.20;0.10;;;;;;;;;;5011577;28;20054;-60
2022/06/05 11:08:11;;;;;;;0.35;0.20;;;;;;;;;;5008222;28;20073;-61
2022/06/05 11:13:57;;;;;;;0.10;0.10;;;;;;;;;;5024468;28;20132;-60
2022/06/05 11:16:52;;;;;;;0.45;0.20;;;;;;;;;;5027275;28;20058;-61
2022/06/05 11:19:43;;;;;;;0.10;0.10;;;;;;;;;;5027612;28;20089;-61
2022/06/05 11:22:11;;;;;;;0.13;0.13;;;;;;;;;;5015028;28;20673;-60
2022/06/05 11:24:48;;;;;;;0.20;0.10;;;;;;;;;;5022573;28;20058;-61
2022/06/05 11:27:27;;;;;;;0.32;0.30;;;;;;;;;;5022605;28;20050;-61
2022/06/05 11:30:12;;;;;;;0.05;0.05;;;;;;;;;;5023979;28;20058;-60
2022/06/05 11:32:38;;;;;;;0.17;0.17;;;;;;;;;;5020407;28;20062;-60
2022/06/05 11:35:20;;;;;;;0.10;0.10;;;;;;;;;;5023985;28;20050;-50
2022/06/05 11:37:56;;;;;;;0.20;0.20;;;;;;;;;;5012728;28;20148;-59
2022/06/05 11:40:45;;;;;;;0.20;0.20;;;;;;;;;;5008498;28;20074;-57
2022/06/05 11:43:15;;;;;;;0.00;0.00;;;;;;;;;;5006434;28;20054;-56
2022/06/05 11:45:44;;;;;;;0.30;0.30;;;;;;;;;;5009072;28;20053;-56
2022/06/05 11:48:15;;;;;;;0.20;0.20;;;;;;;;;;5007038;28;20050;-57
2022/06/05 11:50:52;;;;;;;0.00;0.00;;;;;;;;;;5006842;28;20109;-57
2022/06/05 11:53:18;;;;;;;0.30;0.30;;;;;;;;;;5007001;28;20117;-57
2022/06/05 11:55:55;;;;;;;0.22;0.10;;;;;;;;;;5006760;28;20055;-56
2022/06/05 11:58:25;;;;;;;0.08;0.08;;;;;;;;;;5006790;28;20053;-57
2022/06/05 12:00:54;;;;;;;0.30;0.30;;;;;;;;;;5007174;28;20058;-57
2022/06/05 12:03:39;;;;;;;0.05;0.00;;;;;;;;;;5024840;28;20062;-57
2022/06/05 12:06:05;;;;;;;0.10;0.10;;;;;;;;;;5008555;28;20054;-56
2022/06/05 12:08:36;;;;;;;0.20;0.20;;;;;;;;;;5010061;28;20113;-56
2022/06/05 12:11:05;;;;;;;0.20;0.20;;;;;;;;;;5007107;28;20081;-57
2022/06/05 12:13:31;;;;;;;;;;;;;;;;;;5015948;28;20062;-55
2022/06/05 12:16:01;;;;;;;0.40;0.20;;;;;;;;;;5024477;28;45309;-56
2022/06/05 12:18:30;;;;;;;0.00;0.00;;;;;;;;;;5014442;28;20113;-54
2022/06/05 12:21:03;;;;;;;0.13;0.13;;;;;;;;;;5014876;28;20086;-57
2022/06/05 12:23:36;;;;;;;0.15;0.15;;;;;;;;;;5014141;28;20089;-55
2022/06/05 12:26:12;;;;;;;0.20;0.20;;;;;;;;;;5015167;28;20078;-54
2022/06/05 12:28:47;;;;;;;0.68;0.65;;;;;;;;;;5007984;28;20129;-55
2022/06/05 12:31:15;;;;;;;0.08;0.08;;;;;;;;;;5016626;28;20057;-57
2022/06/05 12:34:00;;;;;;;0.05;0.05;;;;;;;;;;5025007;28;20870;-57
2022/06/05 12:36:33;;;;;;;0.00;0.00;;;;;;;;;;5016241;28;20097;-55
2022/06/05 12:39:01;;;;;;;0.20;0.20;;;;;;;;;;5028852;28;20500;-56
2022/06/05 12:41:28;;;;;;;0.30;0.30;;;;;;;;;;5011364;28;20516;-57
2022/06/05 12:43:57;;;;;;;0.30;0.30;;;;;;;;;;5017089;28;20081;-56
2022/06/05 12:46:31;;;;;;;0.10;0.10;;;;;;;;;;5010935;28;20132;-57
2022/06/05 12:49:12;;;;;;;0.30;0.22;;;;;;;;;;5024511;28;20574;-56
2022/06/05 12:51:41;;;;;;;0.22;0.17;;;;;;;;;;5023391;28;20054;-57
2022/06/05 12:54:23;;;;;;;0.05;0.05;;;;;;;;;;5025710;28;20058;-54
2022/06/05 12:57:14;;;;;;;0.35;0.20;;;;;;;;;;5021198;28;20496;-57
2022/06/05 12:59:46;;;;;;;0.15;0.10;;;;;;;;;;5039985;28;20108;-60
2022/06/05 13:02:25;;;;;;;0.38;0.10;;;;;;;;;;5018476;28;20112;-61
2022/06/05 13:04:57;;;;;;;0.10;0.10;;;;;;;;;;5025824;28;20402;-60
2022/06/05 13:07:26;;;;;;;0.10;0.10;;;;;;;;;;5027284;28;20563;-60
2022/06/05 13:09:56;;;;;;;0.82;0.15;;;;;;;;;;5019888;28;20509;-60
2022/06/05 13:12:32;;;;;;;0.00;0.00;;;;;;;;;;5017557;28;20054;-61
2022/06/05 13:14:58;;;;;;;0.10;0.10;;;;;;;;;;5008909;28;20058;-61
2022/06/05 13:17:42;;;;;;;0.15;0.15;;;;;;;;;;5010441;28;20054;-61
2022/06/05 13:20:20;;;;;;;0.00;0.00;;;;;;;;;;5019877;28;20053;-60
2022/06/05 13:22:48;;;;;;;0.30;0.05;;;;;;;;;;5011804;28;20113;-61
2022/06/05 13:25:17;;;;;;;0.28;0.17;;;;;;;;;;5015882;28;20576;-60
2022/06/05 13:27:51;;;;;;;0.20;0.10;;;;;;;;;;5010378;28;20113;-60
2022/06/05 13:30:19;;;;;;;0.00;0.00;;;;;;;;;;5011840;28;20402;-60
2022/06/05 13:32:45;;;;;;;;;;;;;;;;;;5013813;28;20046;-60
2022/06/05 13:35:23;;;;;;;0.10;0.00;;;;;;;;;;5007465;28;45850;-61
2022/06/05 13:37:58;;;;;;;0.52;0.52;;;;;;;;;;5009596;28;20137;-60
2022/06/05 13:40:33;;;;;;;0.00;0.00;;;;;;;;;;5010241;28;20506;-60
2022/06/05 13:43:01;;;;;;;1.10;0.65;;;;;;;;;;5009479;28;20144;-60
2022/06/05 13:45:35;;;;;;;0.43;0.40;;;;;;;;;;5008395;28;20051;-61
2022/06/05 13:48:33;;;;;;;0.10;0.10;;;;;;;;;;5010626;28;20054;-60
2022/06/05 13:51:03;;;;;;;0.00;0.00;;;;;;;;;;5007917;28;20113;-60
2022/06/05 13:53:37;;;;;;;0.00;0.00;;;;;;;;;;5009504;28;20050;-60
2022/06/05 13:56:11;;;;;;;0.20;0.20;;;;;;;;;;5009039;28;20050;-60
2022/06/05 13:58:44;;;;;;;1.73;0.95;;;;;;;;;;5022373;28;20099;-60
2022/06/05 14:01:14;;;;;;;0.05;0.05;;;;;;;;;;5012074;28;20132;-60
2022/06/05 14:03:41;;;;;;;0.47;0.35;;;;;;;;;;5009622;28;20121;-60
2022/06/05 14:06:28;;;;;;;0.68;0.35;;;;;;;;;;5020800;28;20058;-59
2022/06/05 14:08:57;;;;;;;0.10;0.10;;;;;;;;;;5009340;28;20168;-59
2022/06/05 14:11:34;;;;;;;0.10;0.10;;;;;;;;;;5009687;28;20863;-58
2022/06/05 14:14:03;;;;;;;1.25;0.98;;;;;;;;;;5026361;28;20595;-59
2022/06/05 14:16:31;;;;;;;0.47;0.43;;;;;;;;;;5017006;28;20142;-59
2022/06/05 14:18:59;;;;;;;0.30;0.30;;;;;;;;;;5024761;28;20062;-59
2022/06/05 14:21:28;;;;;;;0.70;0.52;;;;;;;;;;5027612;28;20519;-59
2022/06/05 14:24:16;;;;;;;0.00;0.00;;;;;;;;;;5010891;28;20169;-59
2022/06/05 14:26:42;;;;;;;;;;;;;;;;;;5011251;28;20103;-59
2022/06/05 14:29:17;;;;;;;0.10;0.10;;;;;;;;;;5026313;28;44443;-59
2022/06/05 14:31:54;;;;;;;0.00;0.00;;;;;;;;;;5022586;28;20133;-59
2022/06/05 14:34:21;;;;;;;0.08;0.08;;;;;;;;;;5012074;28;20108;-59
2022/06/05 14:36:51;;;;;;;0.00;0.00;;;;;;;;;;5012039;28;20050;-58
2022/06/05 14:39:20;;;;;;;0.10;0.10;;;;;;;;;;5022651;28;20105;-58
2022/06/05 14:41:59;;;;;;;0.05;0.00;;;;;;;;;;5021968;28;20057;-58
2022/06/05 14:44:30;;;;;;;0.30;0.20;;;;;;;;;;5015247;28;20090;-58
2022/06/05 14:47:08;;;;;;;0.00;0.00;;;;;;;;;;5025414;28;20046;-58
2022/06/05 14:49:38;;;;;;;0.10;0.10;;;;;;;;;;5012059;28;20054;-57
2022/06/05 14:52:22;;;;;;;0.05;0.03;;;;;;;;;;5009787;28;20101;-58
2022/06/05 14:58:02;;;;;;;0.00;0.00;;;;;;;;;;5026237;28;20453;-57
2022/06/05 15:00:50;;;;;;;0.05;0.05;;;;;;;;;;5007694;28;20055;-58
2022/06/05 15:03:16;;;;;;;;;;;;;;;;;;5008540;28;20596;-58
2022/06/05 15:05:49;;;;;;;0.30;0.30;;;;;;;;;;5006469;28;44907;-58
2022/06/05 15:08:21;;;;;;;0.20;0.13;;;;;;;;;;5007947;28;20081;-58
2022/06/05 15:10:52;;;;;;;0.00;0.00;;;;;;;;;;5007580;28;20055;-58
2022/06/05 15:13:21;;;;;;;0.17;0.10;;;;;;;;;;5007270;28;20583;-57
2022/06/05 15:15:52;;;;;;;0.00;0.00;;;;;;;;;;5005161;28;20081;-58
2022/06/05 15:18:20;;;;;;;0.30;0.30;;;;;;;;;;5025074;28;20054;-58
2022/06/05 15:21:14;;;;;;;0.00;0.00;;;;;;;;;;5010664;28;20058;-58
2022/06/05 15:23:44;;;;;;;0.73;0.30;;;;;;;;;;5008292;28;20924;-58
2022/06/05 15:26:18;;;;;;;0.10;0.05;;;;;;;;;;5011875;28;20144;-58
2022/06/05 15:28:50;;;;;;;0.32;0.30;;;;;;;;;;5021177;28;20058;-58
2022/06/05 15:31:19;;;;;;;0.00;0.00;;;;;;;;;;5014825;28;20571;-57